Time;durP1;ratioP1;P1;durP2;ratioP2;P2;SDS_P1;SDS_P2;PMS_P1;PMS_P2;Temp;Humidity;BMP_temperature;BMP_pressure;BME280_temperature;BME280_humidity;BME280_pressure;Samples;Min_cycle;Max_cycle;Signal;HPM_P1;HPM_P2
2022/07/05 00:02:04;;;;;;;4.90;2.10;;;20.50;91.00;;;;;;5043534;28;20515;-35
2022/07/05 00:04:32;;;;;;;4.10;2.08;;;20.50;91.00;;;;;;5043134;28;20208;-35
2022/07/05 00:07:17;;;;;;;2.95;2.17;;;20.50;91.00;;;;;;5042240;28;20706;-33
2022/07/05 00:09:56;;;;;;;2.65;2.13;;;20.40;91.00;;;;;;5041878;28;20196;-35
2022/07/05 00:12:27;;;;;;;3.28;2.00;;;20.40;91.10;;;;;;5042667;28;20192;-35
2022/07/05 00:14:57;;;;;;;3.47;2.30;;;20.40;91.10;;;;;;5042503;28;20247;-34
2022/07/05 00:17:29;;;;;;;3.78;2.20;;;20.30;91.10;;;;;;5034893;28;20709;-35
2022/07/05 00:19:56;;;;;;;2.67;2.00;;;20.30;91.10;;;;;;5057112;28;20200;-34
2022/07/05 00:22:26;;;;;;;2.88;2.00;;;20.30;91.20;;;;;;5042521;28;20230;-34
2022/07/05 00:24:56;;;;;;;3.10;2.28;;;20.20;91.20;;;;;;5045810;28;20196;-35
2022/07/05 00:27:24;;;;;;;3.13;1.85;;;20.20;91.20;;;;;;5062350;28;20311;-35
2022/07/05 00:29:51;;;;;;;4.18;2.30;;;20.10;91.20;;;;;;5047170;28;20211;-34
2022/07/05 00:32:18;;;;;;;3.25;2.13;;;20.10;91.30;;;;;;5044606;28;20223;-34
2022/07/05 00:34:50;;;;;;;3.50;2.53;;;20.00;91.30;;;;;;5048033;28;20211;-32
2022/07/05 00:37:17;;;;;;;5.25;2.65;;;20.00;91.30;;;;;;5048076;28;20275;-33
2022/07/05 00:39:47;;;;;;;3.70;2.30;;;20.00;91.40;;;;;;5045224;28;20204;-35
2022/07/05 00:42:14;;;;;;;4.63;2.45;;;19.90;91.40;;;;;;5044804;28;20302;-36
2022/07/05 00:44:42;;;;;;;3.85;2.05;;;19.90;91.40;;;;;;5046908;28;20216;-35
2022/07/05 00:47:11;;;;;;;3.05;2.05;;;19.80;91.40;;;;;;5042085;28;20228;-35
2022/07/05 00:49:41;;;;;;;3.88;2.30;;;19.80;91.80;;;;;;5046810;28;20291;-35
2022/07/05 00:52:11;;;;;;;4.07;2.10;;;19.80;91.50;;;;;;5044091;28;20219;-35
2022/07/05 00:54:47;;;;;;;2.28;1.80;;;19.70;91.40;;;;;;5043384;28;20207;-33
2022/07/05 00:57:15;;;;;;;3.00;1.80;;;19.70;91.40;;;;;;5048118;28;20580;-35
2022/07/05 00:59:45;;;;;;;2.35;1.80;;;19.70;91.50;;;;;;5039234;28;20233;-35
2022/07/05 01:02:12;;;;;;;4.47;1.90;;;19.70;91.60;;;;;;5043549;28;20290;-35
2022/07/05 01:04:50;;;;;;;3.20;2.03;;;19.70;91.70;;;;;;5043566;28;20215;-35
2022/07/05 01:07:22;;;;;;;2.92;1.80;;;19.70;91.80;;;;;;5033154;28;20313;-36
2022/07/05 01:09:49;;;;;;;2.70;1.77;;;19.60;91.80;;;;;;5038281;28;20231;-36
2022/07/05 01:12:17;;;;;;;3.25;1.90;;;19.60;91.80;;;;;;5042595;28;20208;-35
2022/07/05 01:14:45;;;;;;;2.95;2.03;;;19.50;91.80;;;;;;5039896;28;20690;-36
2022/07/05 01:17:17;;;;;;;2.40;1.90;;;19.50;91.70;;;;;;5041117;28;20193;-36
2022/07/05 01:19:44;;;;;;;3.50;1.90;;;19.50;91.90;;;;;;5044878;28;20530;-35
2022/07/05 01:22:19;;;;;;;2.30;2.03;;;19.40;91.80;;;;;;5042377;28;20215;-35
2022/07/05 01:24:51;;;;;;;4.15;1.85;;;19.50;91.90;;;;;;5046617;28;20195;-34
2022/07/05 01:27:19;;;;;;;3.40;2.10;;;19.40;92.00;;;;;;5043273;28;20235;-34
2022/07/05 01:29:49;;;;;;;3.75;2.10;;;19.40;92.10;;;;;;5047757;28;21091;-34
2022/07/05 01:32:17;;;;;;;3.92;2.38;;;19.30;92.10;;;;;;5044227;28;20224;-35
2022/07/05 01:34:45;;;;;;;4.55;2.00;;;19.30;92.10;;;;;;5034027;28;20570;-34
2022/07/05 01:37:15;;;;;;;2.83;2.10;;;19.20;92.00;;;;;;5012430;28;20239;-34
2022/07/05 01:39:43;;;;;;;3.13;2.20;;;19.20;92.10;;;;;;5037302;28;20775;-35
2022/07/05 01:42:10;;;;;;;3.75;2.20;;;19.20;92.10;;;;;;5045437;28;20204;-34
2022/07/05 01:44:40;;;;;;;2.55;2.15;;;19.20;92.20;;;;;;5045693;28;20208;-34
2022/07/05 01:47:08;;;;;;;3.03;2.35;;;19.10;92.50;;;;;;5046679;28;20208;-34
2022/07/05 01:49:45;;;;;;;3.75;2.58;;;19.10;92.20;;;;;;5040469;28;20232;-34
2022/07/05 01:52:13;;;;;;;4.20;2.15;;;19.10;92.50;;;;;;5043844;28;20196;-35
2022/07/05 01:54:41;;;;;;;2.22;2.03;;;19.10;92.30;;;;;;5044504;28;20638;-34
2022/07/05 01:57:11;;;;;;;2.25;2.00;;;19.00;92.20;;;;;;5045570;28;20551;-35
2022/07/05 01:59:39;;;;;;;3.58;2.67;;;19.00;92.20;;;;;;5044300;28;20319;-35
2022/07/05 02:02:08;;;;;;;2.63;2.38;;;19.00;92.30;;;;;;5041898;28;20204;-35
2022/07/05 02:04:38;;;;;;;2.70;2.50;;;19.00;92.30;;;;;;5039933;28;20208;-35
2022/07/05 02:07:08;;;;;;;2.42;1.95;;;19.00;92.30;;;;;;5043230;28;20635;-35
2022/07/05 02:09:39;;;;;;;4.30;2.38;;;18.90;92.30;;;;;;5045837;28;20205;-35
2022/07/05 02:12:08;;;;;;;4.00;2.72;;;18.90;92.40;;;;;;5045130;28;20196;-35
2022/07/05 02:14:36;;;;;;;3.83;2.55;;;18.90;92.50;;;;;;5045092;28;20408;-35
2022/07/05 02:17:03;;;;;;;2.90;2.45;;;19.10;92.80;;;;;;5043381;28;20206;-33
2022/07/05 02:19:30;;;;;;;2.47;2.28;;;19.00;92.70;;;;;;5035952;28;20295;-33
2022/07/05 02:21:58;;;;;;;2.97;2.50;;;19.00;92.70;;;;;;5033892;28;20196;-35
2022/07/05 02:24:30;;;;;;;3.65;2.38;;;18.90;92.70;;;;;;5043470;28;20208;-35
2022/07/05 02:27:02;;;;;;;2.40;2.20;;;18.80;92.70;;;;;;5043387;28;20865;-35
2022/07/05 02:29:32;;;;;;;2.50;2.15;;;18.80;92.70;;;;;;5045247;28;20611;-35
2022/07/05 02:31:59;;;;;;;3.42;1.92;;;18.80;92.70;;;;;;5041274;28;20218;-35
2022/07/05 02:34:29;;;;;;;3.35;2.25;;;18.70;92.70;;;;;;5046059;28;20205;-35
2022/07/05 02:36:56;;;;;;;4.57;2.50;;;18.70;92.70;;;;;;5043898;28;20331;-35
2022/07/05 02:39:23;;;;;;;4.95;2.75;;;18.60;92.70;;;;;;5042331;28;20216;-35
2022/07/05 02:41:50;;;;;;;2.97;2.58;;;18.70;92.70;;;;;;5040491;28;20216;-35
2022/07/05 02:44:18;;;;;;;3.13;2.35;;;18.60;92.80;;;;;;5043827;28;20281;-35
2022/07/05 02:46:45;;;;;;;3.05;2.38;;;18.60;92.90;;;;;;5054427;28;20621;-36
2022/07/05 02:49:15;;;;;;;3.75;2.30;;;18.50;92.80;;;;;;5042784;28;20218;-35
2022/07/05 02:51:47;;;;;;;2.33;2.13;;;18.50;92.80;;;;;;5043758;28;20643;-35
2022/07/05 02:54:14;;;;;;;5.70;2.75;;;18.50;92.90;;;;;;5041100;28;20292;-36
2022/07/05 02:56:44;;;;;;;3.85;2.50;;;18.50;92.80;;;;;;5055013;28;20216;-35
2022/07/05 02:59:11;;;;;;;4.10;2.50;;;18.40;92.80;;;;;;5044999;28;20208;-35
2022/07/05 03:01:40;;;;;;;2.40;2.20;;;18.30;92.80;;;;;;5049604;28;20212;-35
2022/07/05 03:04:10;;;;;;;3.35;2.25;;;18.30;92.90;;;;;;5028639;28;20297;-35
2022/07/05 03:06:38;;;;;;;2.90;2.33;;;18.20;92.90;;;;;;5029889;28;20220;-35
2022/07/05 03:09:05;;;;;;;2.97;2.70;;;18.20;92.90;;;;;;5037408;28;20212;-35
2022/07/05 03:11:32;;;;;;;4.00;2.60;;;18.10;93.00;;;;;;5044135;28;20198;-35
2022/07/05 03:13:59;;;;;;;3.80;2.17;;;18.10;93.00;;;;;;5041518;28;20820;-35
2022/07/05 03:16:29;;;;;;;3.65;2.78;;;18.10;92.80;;;;;;5042765;28;20274;-35
2022/07/05 03:19:01;;;;;;;4.18;2.70;;;18.10;92.90;;;;;;5036055;28;20666;-35
2022/07/05 03:21:28;;;;;;;4.15;2.70;;;18.10;93.20;;;;;;5031012;28;20200;-35
2022/07/05 03:23:56;;;;;;;3.25;2.70;;;18.00;92.90;;;;;;5042378;28;20289;-35
2022/07/05 03:26:23;;;;;;;4.65;2.80;;;18.00;92.90;;;;;;5044204;28;20216;-34
2022/07/05 03:28:50;;;;;;;3.92;2.50;;;18.00;93.00;;;;;;5046101;28;20208;-34
2022/07/05 03:31:17;;;;;;;2.95;2.50;;;17.90;92.90;;;;;;5045925;28;20201;-34
2022/07/05 03:33:47;;;;;;;2.75;2.50;;;17.90;93.00;;;;;;5044745;28;20216;-34
2022/07/05 03:36:16;;;;;;;2.75;2.40;;;17.90;93.00;;;;;;5043019;28;20208;-35
2022/07/05 03:38:43;;;;;;;3.25;2.75;;;17.90;92.90;;;;;;5046011;28;20232;-34
2022/07/05 03:41:10;;;;;;;4.15;2.72;;;17.90;93.00;;;;;;5044373;28;20215;-34
2022/07/05 03:43:38;;;;;;;4.35;2.70;;;17.80;93.10;;;;;;5043871;28;20322;-34
2022/07/05 03:46:05;;;;;;;3.72;2.70;;;17.80;93.00;;;;;;5042190;28;20200;-34
2022/07/05 03:48:33;;;;;;;3.13;2.83;;;17.80;93.00;;;;;;5043008;28;20563;-32
2022/07/05 03:51:10;;;;;;;5.18;3.08;;;17.80;93.10;;;;;;5043366;28;20215;-32
2022/07/05 03:53:37;;;;;;;3.55;2.70;;;17.80;93.20;;;;;;5035721;28;20212;-32
2022/07/05 03:56:07;;;;;;;3.00;2.70;;;17.70;93.10;;;;;;5039813;28;20227;-33
2022/07/05 03:58:35;;;;;;;3.58;2.70;;;17.80;93.30;;;;;;5043204;28;20208;-34
2022/07/05 04:01:02;;;;;;;4.30;2.72;;;17.70;93.00;;;;;;5048497;28;20231;-34
2022/07/05 04:03:30;;;;;;;4.50;2.78;;;17.70;93.10;;;;;;5041860;28;20277;-32
2022/07/05 04:05:59;;;;;;;3.50;2.70;;;17.80;93.20;;;;;;5046567;28;20196;-33
2022/07/05 04:08:26;;;;;;;7.00;3.17;;;17.80;93.20;;;;;;5047753;28;20243;-32
2022/07/05 04:10:53;;;;;;;3.45;3.05;;;17.70;93.20;;;;;;5047611;28;20210;-33
2022/07/05 04:13:23;;;;;;;3.40;2.80;;;17.70;93.20;;;;;;5044425;28;20223;-32
2022/07/05 04:15:55;;;;;;;3.90;2.97;;;17.70;93.30;;;;;;5048664;28;20232;-32
2022/07/05 04:18:27;;;;;;;4.75;3.20;;;17.70;93.30;;;;;;5044658;28;20261;-35
2022/07/05 04:20:54;;;;;;;5.20;2.90;;;17.70;93.30;;;;;;5045043;28;20627;-34
2022/07/05 04:23:22;;;;;;;3.05;2.85;;;17.70;93.30;;;;;;5039670;28;20632;-34
2022/07/05 04:25:51;;;;;;;3.17;2.53;;;17.70;93.50;;;;;;5044983;28;20208;-35
2022/07/05 04:28:18;;;;;;;4.95;2.72;;;17.70;93.30;;;;;;5045884;28;20288;-34
2022/07/05 04:30:48;;;;;;;5.25;3.00;;;17.70;93.50;;;;;;5046421;28;20258;-35
2022/07/05 04:33:15;;;;;;;3.13;2.70;;;17.70;93.40;;;;;;5047542;28;20197;-35
2022/07/05 04:35:42;;;;;;;3.00;2.50;;;17.70;93.30;;;;;;5047189;28;20208;-35
2022/07/05 04:38:09;;;;;;;3.20;2.90;;;17.70;93.40;;;;;;5043272;28;20327;-36
2022/07/05 04:40:37;;;;;;;3.40;2.80;;;17.70;93.50;;;;;;5044919;28;20269;-35
2022/07/05 04:43:04;;;;;;;3.25;2.42;;;17.70;93.50;;;;;;5044587;28;20735;-36
2022/07/05 04:45:31;;;;;;;4.53;2.60;;;17.70;93.50;;;;;;5044726;28;20204;-35
2022/07/05 04:47:59;;;;;;;3.40;2.58;;;17.70;93.50;;;;;;5046896;28;20315;-35
2022/07/05 04:50:28;;;;;;;5.47;3.15;;;17.70;93.50;;;;;;5047556;28;20188;-35
2022/07/05 04:52:55;;;;;;;4.47;3.03;;;17.70;93.50;;;;;;5044646;28;20291;-35
2022/07/05 04:55:25;;;;;;;5.15;2.72;;;17.80;93.50;;;;;;5061704;28;20692;-35
2022/07/05 04:57:52;;;;;;;3.53;2.63;;;17.80;93.50;;;;;;5046166;28;20232;-35
2022/07/05 05:00:22;;;;;;;5.80;3.05;;;17.80;93.60;;;;;;5041056;28;20208;-35
2022/07/05 05:02:49;;;;;;;3.40;3.10;;;17.80;93.50;;;;;;5041457;28;20205;-35
2022/07/05 05:05:16;;;;;;;4.55;2.90;;;17.80;93.60;;;;;;5046946;28;20704;-35
2022/07/05 05:07:44;;;;;;;3.67;3.00;;;17.80;93.70;;;;;;5046097;28;20255;-35
2022/07/05 05:10:14;;;;;;;4.88;3.20;;;17.90;93.80;;;;;;5026334;28;20320;-35
2022/07/05 05:12:44;;;;;;;10.93;2.97;;;17.90;93.70;;;;;;5045741;28;20315;-35
2022/07/05 05:15:13;;;;;;;4.47;3.30;;;17.90;93.70;;;;;;5046270;28;20196;-35
2022/07/05 05:17:43;;;;;;;7.63;3.40;;;17.90;93.80;;;;;;5047742;28;20206;-33
2022/07/05 05:20:20;;;;;;;4.00;3.00;;;18.00;93.90;;;;;;5046341;28;20208;-34
2022/07/05 05:22:48;;;;;;;3.33;3.00;;;18.00;94.00;;;;;;5042397;28;20212;-34
2022/07/05 05:25:15;;;;;;;7.75;3.42;;;18.00;93.90;;;;;;5046838;28;20205;-34
2022/07/05 05:27:50;;;;;;;4.63;2.97;;;18.10;94.00;;;;;;5044766;28;20222;-35
2022/07/05 05:30:18;;;;;;;4.13;3.00;;;18.10;94.00;;;;;;5046977;28;20243;-35
2022/07/05 05:32:46;;;;;;;4.25;3.10;;;18.20;94.00;;;;;;5044927;28;20675;-35
2022/07/05 05:35:13;;;;;;;4.30;3.10;;;18.20;94.00;;;;;;5045869;28;20207;-34
2022/07/05 05:37:51;;;;;;;8.52;3.08;;;18.30;94.10;;;;;;5039256;28;20633;-34
2022/07/05 05:40:22;;;;;;;6.03;2.85;;;18.30;94.20;;;;;;5039390;28;20212;-34
2022/07/05 05:42:53;;;;;;;4.55;2.75;;;18.40;94.20;;;;;;5037581;28;20204;-34
2022/07/05 05:45:21;;;;;;;4.43;3.20;;;18.40;94.30;;;;;;5047400;28;20711;-35
2022/07/05 05:47:57;;;;;;;4.80;3.10;;;18.50;94.20;;;;;;5040426;28;20668;-35
2022/07/05 05:50:29;;;;;;;5.55;3.63;;;18.50;94.30;;;;;;5039443;28;20192;-35
2022/07/05 05:52:57;;;;;;;4.50;2.88;;;18.50;94.30;;;;;;5043970;28;20730;-36
2022/07/05 05:55:26;;;;;;;4.15;3.10;;;18.60;94.30;;;;;;5046641;28;20200;-35
2022/07/05 05:57:54;;;;;;;7.00;3.72;;;18.60;94.40;;;;;;5043896;28;20216;-35
2022/07/05 06:00:25;;;;;;;4.15;2.95;;;18.60;94.40;;;;;;5046934;28;20231;-35
2022/07/05 06:02:55;;;;;;;6.07;3.85;;;18.70;94.40;;;;;;5061746;28;20212;-36
2022/07/05 06:05:25;;;;;;;4.32;3.05;;;18.70;94.40;;;;;;5044672;28;20643;-35
2022/07/05 06:07:54;;;;;;;4.55;3.33;;;18.70;94.40;;;;;;5047514;28;20227;-35
2022/07/05 06:10:29;;;;;;;3.63;2.92;;;18.80;94.50;;;;;;5027770;28;20626;-35
2022/07/05 06:13:00;;;;;;;7.95;3.33;;;18.80;94.60;;;;;;5045159;28;20302;-35
2022/07/05 06:15:30;;;;;;;5.60;3.10;;;18.80;94.50;;;;;;5042290;28;20215;-35
2022/07/05 06:17:57;;;;;;;5.93;3.00;;;18.90;94.60;;;;;;5042557;28;20282;-35
2022/07/05 06:20:26;;;;;;;4.72;3.22;;;18.90;95.00;;;;;;5047396;28;20671;-35
2022/07/05 06:22:54;;;;;;;7.55;3.53;;;19.00;94.70;;;;;;5047461;28;20208;-35
2022/07/05 06:25:22;;;;;;;5.35;3.20;;;19.10;94.80;;;;;;5046338;28;20317;-35
2022/07/05 06:27:59;;;;;;;4.00;3.10;;;19.10;94.70;;;;;;5044811;28;20230;-35
2022/07/05 06:30:28;;;;;;;6.45;3.22;;;19.20;94.80;;;;;;5043058;28;20279;-35
2022/07/05 06:32:56;;;;;;;5.20;3.05;;;19.20;94.80;;;;;;5045604;28;20223;-35
2022/07/05 06:35:27;;;;;;;5.07;3.35;;;19.30;94.80;;;;;;5045540;28;20238;-35
2022/07/05 06:38:02;;;;;;;3.90;3.00;;;19.40;94.90;;;;;;5039398;28;20644;-35
2022/07/05 06:40:32;;;;;;;5.95;3.20;;;19.40;94.90;;;;;;5045149;28;20188;-36
2022/07/05 06:43:04;;;;;;;15.88;5.80;;;19.50;95.00;;;;;;5044570;28;20823;-36
2022/07/05 06:45:34;;;;;;;10.88;4.90;;;19.50;94.90;;;;;;5045054;28;20208;-36
2022/07/05 06:48:07;;;;;;;6.93;3.45;;;19.60;95.00;;;;;;5042889;28;20602;-35
2022/07/05 06:50:36;;;;;;;6.40;3.38;;;19.60;95.00;;;;;;5042135;28;20192;-35
2022/07/05 06:53:04;;;;;;;7.45;3.05;;;19.80;95.40;;;;;;5046355;28;20571;-35
2022/07/05 06:55:32;;;;;;;6.40;3.33;;;19.80;95.40;;;;;;5043375;28;20228;-35
2022/07/05 06:58:05;;;;;;;10.13;3.13;;;19.90;95.10;;;;;;5044078;28;20301;-35
2022/07/05 07:00:41;;;;;;;7.65;2.55;;;19.90;95.10;;;;;;5037823;28;20204;-36
2022/07/05 07:03:31;;;;;;;6.97;2.80;;;20.00;95.20;;;;;;5040890;28;20208;-36
2022/07/05 07:06:25;;;;;;;4.85;2.53;;;20.00;95.20;;;;;;5045688;28;20199;-36
2022/07/05 07:11:49;;;;;;;4.22;1.90;;;20.10;95.10;;;;;;5036274;28;20953;-36
2022/07/05 07:14:17;;;;;;;7.72;2.85;;;20.20;95.20;;;;;;5042360;28;20266;-36
2022/07/05 07:16:44;;;;;;;8.45;3.00;;;20.20;95.10;;;;;;5039816;28;20541;-35
2022/07/05 07:19:14;;;;;;;4.03;2.75;;;20.30;95.20;;;;;;5046137;28;20219;-36
2022/07/05 07:21:44;;;;;;;5.63;2.33;;;20.30;95.20;;;;;;5045170;28;20654;-35
2022/07/05 07:24:16;;;;;;;2.47;2.10;;;20.40;95.30;;;;;;5045072;28;20253;-34
2022/07/05 07:29:35;;;;;;;4.45;2.40;;;20.40;95.30;;;;;;5042810;28;20208;-35
2022/07/05 07:32:09;;;;;;;3.40;2.58;;;20.50;95.30;;;;;;5044708;28;20690;-35
2022/07/05 07:34:37;;;;;;;2.80;2.20;;;20.50;95.30;;;;;;5050331;28;20629;-35
2022/07/05 07:37:05;;;;;;;4.10;2.20;;;20.60;95.30;;;;;;5048790;28;20428;-35
2022/07/05 07:39:35;;;;;;;3.53;2.00;;;20.60;95.30;;;;;;5050182;28;20285;-34
2022/07/05 07:42:02;;;;;;;7.07;2.10;;;20.70;95.40;;;;;;5049535;28;20652;-35
2022/07/05 07:44:34;;;;;;;3.55;1.80;;;20.70;95.40;;;;;;5049520;28;20216;-34
2022/07/05 07:47:02;;;;;;;4.93;2.30;;;20.80;95.50;;;;;;5047808;28;20212;-35
2022/07/05 07:49:32;;;;;;;4.35;2.33;;;20.90;95.50;;;;;;5058586;28;20655;-34
2022/07/05 07:52:03;;;;;;;3.58;1.67;;;20.90;95.50;;;;;;5045407;28;21086;-34
2022/07/05 07:54:33;;;;;;;3.78;2.42;;;21.00;95.50;;;;;;5047743;28;20200;-33
2022/07/05 07:57:01;;;;;;;5.32;2.33;;;21.10;95.60;;;;;;5039819;28;20233;-34
2022/07/05 07:59:28;;;;;;;6.07;2.58;;;21.10;95.60;;;;;;5047372;28;20240;-34
2022/07/05 08:02:03;;;;;;;4.47;2.08;;;21.20;95.70;;;;;;5047585;28;20222;-35
2022/07/05 08:04:31;;;;;;;5.60;2.58;;;21.20;95.70;;;;;;5048693;28;20203;-34
2022/07/05 08:06:58;;;;;;;8.65;2.65;;;21.30;95.70;;;;;;5036835;28;20301;-34
2022/07/05 08:09:25;;;;;;;2.20;1.85;;;21.40;95.80;;;;;;5046324;28;20331;-34
2022/07/05 08:11:53;;;;;;;6.93;2.25;;;21.40;95.70;;;;;;5049295;28;20211;-34
2022/07/05 08:14:19;;;;;;;2.53;1.98;;;21.50;95.70;;;;;;5050117;28;20197;-34
2022/07/05 08:16:48;;;;;;;4.80;2.47;;;21.50;95.70;;;;;;5043389;28;20282;-35
2022/07/05 08:22:08;;;;;;;3.10;2.13;;;21.60;95.70;;;;;;5049209;28;20204;-34
2022/07/05 08:24:42;;;;;;;6.88;2.38;;;21.70;95.70;;;;;;5045368;28;20270;-35
2022/07/05 08:27:11;;;;;;;3.35;1.98;;;21.70;95.70;;;;;;5058196;28;20199;-34
2022/07/05 08:29:41;;;;;;;5.75;2.50;;;21.80;95.80;;;;;;5048238;28;20211;-35
2022/07/05 08:32:13;;;;;;;3.33;2.15;;;21.90;95.70;;;;;;5060445;28;20663;-34
2022/07/05 08:34:40;;;;;;;4.32;2.28;;;22.00;95.80;;;;;;5043050;28;20661;-34
2022/07/05 08:37:10;;;;;;;4.45;2.28;;;22.00;95.80;;;;;;5046828;28;20285;-34
2022/07/05 08:39:46;;;;;;;5.57;2.60;;;22.10;95.80;;;;;;5041344;28;20240;-34
2022/07/05 08:42:14;;;;;;;5.10;2.40;;;22.20;95.80;;;;;;5031199;28;20203;-34
2022/07/05 08:44:45;;;;;;;4.47;3.00;;;22.30;95.70;;;;;;5043817;28;20611;-34
2022/07/05 08:47:17;;;;;;;4.25;2.00;;;22.30;95.50;;;;;;5047023;28;20641;-33
2022/07/05 08:49:49;;;;;;;4.45;2.50;;;22.40;95.70;;;;;;5048053;28;20701;-34
2022/07/05 08:52:19;;;;;;;4.30;2.15;;;22.40;95.70;;;;;;5045936;28;20208;-34
2022/07/05 08:54:53;;;;;;;4.88;2.05;;;22.40;95.70;;;;;;5042765;28;20343;-35
2022/07/05 08:57:20;;;;;;;5.68;2.20;;;22.50;95.70;;;;;;5048377;28;20219;-35
2022/07/05 08:59:47;;;;;;;3.95;1.95;;;22.60;95.60;;;;;;5046623;28;20203;-34
2022/07/05 09:02:17;;;;;;;5.45;2.25;;;22.60;95.70;;;;;;5048441;28;20213;-35
2022/07/05 09:04:45;;;;;;;5.40;2.17;;;22.70;95.70;;;;;;5048313;28;20246;-35
2022/07/05 09:07:16;;;;;;;3.08;1.92;;;22.70;95.70;;;;;;5048752;28;20212;-35
2022/07/05 09:09:51;;;;;;;5.00;2.00;;;22.80;95.80;;;;;;5041796;28;20200;-35
2022/07/05 09:12:21;;;;;;;6.10;2.50;;;22.80;95.70;;;;;;5047710;28;20200;-35
2022/07/05 09:14:54;;;;;;;3.03;1.42;;;22.80;95.50;;;;;;5048396;28;20232;-36
2022/07/05 09:17:22;;;;;;;3.95;1.75;;;22.80;95.40;;;;;;5047584;28;20303;-35
2022/07/05 09:20:12;;;;;;;2.63;1.42;;;22.80;95.50;;;;;;5045428;28;20295;-35
2022/07/05 09:22:54;;;;;;;4.22;1.42;;;22.90;95.50;;;;;;5046702;28;20628;-36
2022/07/05 09:25:31;;;;;;;3.35;1.80;;;22.90;95.50;;;;;;5047487;28;20200;-35
2022/07/05 09:28:04;;;;;;;4.38;1.80;;;22.90;95.50;;;;;;5044686;28;20263;-36
2022/07/05 09:30:34;;;;;;;8.15;2.13;;;23.00;95.30;;;;;;5046240;28;20212;-35
2022/07/05 09:33:10;;;;;;;5.53;1.60;;;23.00;95.40;;;;;;5047322;28;20184;-35
2022/07/05 09:35:42;;;;;;;2.17;1.45;;;23.00;95.20;;;;;;5053845;28;20199;-35
2022/07/05 09:38:22;;;;;;;3.70;1.20;;;23.10;95.40;;;;;;5042901;28;20322;-35
2022/07/05 09:40:57;;;;;;;3.40;1.20;;;23.10;95.40;;;;;;5047188;28;20200;-35
2022/07/05 09:43:29;;;;;;;4.90;1.35;;;23.20;95.40;;;;;;5047849;28;20242;-36
2022/07/05 09:46:02;;;;;;;6.93;2.00;;;23.20;95.30;;;;;;5061124;28;20713;-35
2022/07/05 09:48:33;;;;;;;6.03;2.28;;;23.30;95.40;;;;;;5038987;28;20212;-35
2022/07/05 09:51:13;;;;;;;5.88;1.85;;;23.30;95.40;;;;;;5037906;28;20203;-35
2022/07/05 09:54:03;;;;;;;6.45;2.22;;;23.30;95.50;;;;;;5035366;28;20602;-35
2022/07/05 09:56:49;;;;;;;6.03;1.92;;;23.40;95.50;;;;;;5045869;28;20200;-35
2022/07/05 09:59:20;;;;;;;5.97;2.08;;;23.40;95.40;;;;;;5040870;28;20212;-35
2022/07/05 10:01:51;;;;;;;5.97;2.05;;;23.50;95.50;;;;;;5042323;28;20761;-35
2022/07/05 10:04:19;;;;;;;5.25;1.88;;;23.50;95.20;;;;;;5044080;28;20307;-35
2022/07/05 10:06:47;;;;;;;5.97;1.80;;;23.60;95.50;;;;;;5046193;28;20224;-35
2022/07/05 10:09:15;;;;;;;3.05;1.98;;;23.60;95.40;;;;;;5045681;28;20224;-35
2022/07/05 10:11:45;;;;;;;5.40;1.85;;;23.70;95.40;;;;;;5045124;28;20311;-35
2022/07/05 10:14:17;;;;;;;6.10;1.83;;;23.70;95.40;;;;;;5043657;28;20204;-34
2022/07/05 10:16:53;;;;;;;2.38;1.55;;;23.80;95.20;;;;;;5043516;28;20223;-34
2022/07/05 10:19:21;;;;;;;3.95;1.83;;;23.80;95.30;;;;;;5041322;28;20226;-34
2022/07/05 10:21:49;;;;;;;2.95;2.00;;;23.80;95.20;;;;;;5042862;28;20214;-35
2022/07/05 10:24:40;;;;;;;4.30;2.17;;;23.80;95.20;;;;;;5046624;28;20224;-34
2022/07/05 10:27:08;;;;;;;3.70;2.00;;;23.80;95.00;;;;;;5042344;28;20200;-35
2022/07/05 10:29:36;;;;;;;5.28;1.73;;;23.80;95.20;;;;;;5043383;28;20232;-34
2022/07/05 10:32:11;;;;;;;5.20;2.22;;;23.90;95.00;;;;;;5045247;28;20307;-34
2022/07/05 10:34:39;;;;;;;8.65;2.53;;;23.90;95.10;;;;;;5040017;28;20275;-35
2022/07/05 10:37:30;;;;;;;12.07;3.20;;;24.00;94.90;;;;;;5031690;28;20708;-35
2022/07/05 10:40:02;;;;;;;6.13;2.40;;;24.00;95.00;;;;;;5045555;28;20242;-34
2022/07/05 10:42:46;;;;;;;6.47;2.50;;;24.00;95.00;;;;;;5045531;28;20188;-35
2022/07/05 10:45:27;;;;;;;4.43;2.35;;;24.00;95.10;;;;;;5047925;28;20206;-35
2022/07/05 10:48:09;;;;;;;8.30;2.80;;;24.00;95.10;;;;;;5039799;28;20273;-35
2022/07/05 10:50:50;;;;;;;6.68;2.05;;;24.10;95.30;;;;;;5036182;28;20211;-34
2022/07/05 10:53:22;;;;;;;5.32;2.40;;;24.10;95.20;;;;;;5058086;28;20287;-35
2022/07/05 10:55:55;;;;;;;3.78;2.00;;;24.20;95.30;;;;;;5046823;28;20596;-35
2022/07/05 10:58:28;;;;;;;7.65;2.25;;;24.20;95.20;;;;;;5040093;28;20204;-34
2022/07/05 11:01:21;;;;;;;3.88;2.20;;;24.30;95.10;;;;;;5038512;28;20208;-34
2022/07/05 11:04:05;;;;;;;3.20;1.98;;;24.30;95.10;;;;;;5045490;28;20216;-35
2022/07/05 11:06:39;;;;;;;5.60;2.10;;;24.30;95.10;;;;;;5043141;28;20243;-35
2022/07/05 11:09:09;;;;;;;3.67;2.22;;;24.30;94.70;;;;;;5042815;28;20593;-34
2022/07/05 11:11:52;;;;;;;8.88;2.78;;;24.30;94.80;;;;;;5041372;28;20204;-34
2022/07/05 11:14:45;;;;;;;6.20;2.80;;;24.30;94.70;;;;;;5046311;28;20212;-34
2022/07/05 11:17:19;;;;;;;5.28;2.42;;;24.40;94.90;;;;;;5044334;28;20277;-35
2022/07/05 11:20:12;;;;;;;7.25;2.45;;;24.40;95.10;;;;;;5045637;28;20211;-34
2022/07/05 11:23:01;;;;;;;5.00;2.17;;;24.40;95.10;;;;;;5040030;28;20530;-35
2022/07/05 11:25:31;;;;;;;4.72;2.15;;;24.50;95.30;;;;;;5045978;28;20208;-34
2022/07/05 11:28:16;;;;;;;6.07;2.53;;;24.50;95.30;;;;;;5042120;28;20298;-34
2022/07/05 11:30:47;;;;;;;5.38;2.20;;;24.70;95.10;;;;;;5051444;28;20746;-34
2022/07/05 11:33:28;;;;;;;4.78;2.10;;;24.70;95.30;;;;;;5045193;28;20250;-35
2022/07/05 11:36:00;;;;;;;5.07;2.05;;;24.80;95.10;;;;;;5044423;28;20210;-34
2022/07/05 11:38:31;;;;;;;4.50;2.35;;;24.90;94.80;;;;;;5037564;28;20235;-34
2022/07/05 11:41:20;;;;;;;4.28;2.30;;;24.90;95.00;;;;;;5044511;28;20242;-34
2022/07/05 11:43:56;;;;;;;3.50;2.17;;;25.00;94.10;;;;;;5044749;28;20808;-34
2022/07/05 11:46:26;;;;;;;3.03;2.13;;;25.00;94.50;;;;;;5044796;28;20196;-35
2022/07/05 11:49:19;;;;;;;4.72;2.10;;;25.00;94.10;;;;;;5024790;28;20225;-34
2022/07/05 11:52:02;;;;;;;5.93;2.17;;;25.00;94.40;;;;;;5032416;28;20216;-34
2022/07/05 11:54:33;;;;;;;4.30;2.28;;;25.00;94.30;;;;;;5039741;28;20197;-35
2022/07/05 11:57:01;;;;;;;5.72;2.63;;;25.00;94.30;;;;;;5042338;28;20224;-35
2022/07/05 11:59:30;;;;;;;5.20;2.78;;;25.00;94.20;;;;;;5043536;28;20204;-34
2022/07/05 12:01:57;;;;;;;6.80;2.20;;;25.00;94.40;;;;;;5040493;28;20291;-34
2022/07/05 12:04:30;;;;;;;11.38;2.55;;;25.10;94.40;;;;;;5044709;28;20208;-35
2022/07/05 12:06:58;;;;;;;7.68;2.90;;;25.10;94.40;;;;;;5032103;28;20223;-35
2022/07/05 12:12:42;;;;;;;3.55;2.20;;;25.20;94.60;;;;;;5043801;28;20705;-35
2022/07/05 12:12:47;;;;;;;4.13;1.95;;;25.30;94.30;;;;;;5046069;28;20203;-35
2022/07/05 12:15:15;;;;;;;4.18;1.88;;;25.30;94.50;;;;;;5044421;28;20255;-35
2022/07/05 12:17:45;;;;;;;3.65;1.80;;;25.40;94.50;;;;;;5045177;28;20334;-35
2022/07/05 12:20:15;;;;;;;2.70;1.88;;;25.50;93.90;;;;;;5049097;28;20235;-34
2022/07/05 12:22:48;;;;;;;3.75;1.80;;;25.50;93.90;;;;;;5035221;28;20213;-35
2022/07/05 12:25:17;;;;;;;7.03;2.00;;;25.50;93.90;;;;;;5041997;28;20224;-35
2022/07/05 12:27:49;;;;;;;3.35;1.75;;;25.60;94.10;;;;;;5043968;28;20205;-35
2022/07/05 12:30:20;;;;;;;6.25;1.70;;;25.60;94.00;;;;;;5043005;28;20322;-34
2022/07/05 12:33:05;;;;;;;6.32;1.70;;;25.70;93.70;;;;;;5042123;28;20212;-35
2022/07/05 12:35:38;;;;;;;4.15;1.83;;;25.70;94.00;;;;;;5048239;28;20208;-35
2022/07/05 12:38:10;;;;;;;5.07;2.03;;;25.60;93.90;;;;;;5038462;28;20236;-35
2022/07/05 12:40:41;;;;;;;3.00;1.42;;;25.60;93.60;;;;;;5049649;28;20196;-37
2022/07/05 12:43:17;;;;;;;2.50;1.20;;;25.70;93.70;;;;;;5045873;28;20200;-36
2022/07/05 12:46:02;;;;;;;2.53;1.15;;;25.70;93.70;;;;;;5030287;28;20274;-35
2022/07/05 12:48:39;;;;;;;5.15;1.75;;;25.70;93.70;;;;;;5043335;28;20219;-35
2022/07/05 12:51:09;;;;;;;3.47;1.42;;;25.70;93.60;;;;;;5046680;28;20726;-35
2022/07/05 13:00:10;;;;;;;3.17;1.58;;;25.70;93.70;;;;;;5044227;28;20603;-35
2022/07/05 13:02:41;;;;;;;3.20;1.92;;;25.70;93.40;;;;;;5044716;28;20574;-35
2022/07/05 13:05:19;;;;;;;6.30;2.47;;;25.60;93.30;;;;;;5063061;28;20748;-35
2022/07/05 13:07:51;;;;;;;3.35;2.28;;;25.50;93.30;;;;;;5046822;28;20978;-35
2022/07/05 13:10:22;;;;;;;5.43;2.20;;;25.50;93.40;;;;;;5045699;28;20216;-35
2022/07/05 13:12:50;;;;;;;3.63;2.15;;;25.40;93.50;;;;;;5043138;28;20271;-35
2022/07/05 13:15:18;;;;;;;5.25;3.20;;;25.50;93.80;;;;;;5048168;28;20212;-36
2022/07/05 13:17:48;;;;;;;5.75;3.03;;;25.50;92.80;;;;;;5048257;28;20218;-36
2022/07/05 13:20:22;;;;;;;4.47;2.08;;;25.40;92.90;;;;;;5046869;28;20196;-35
2022/07/05 13:22:50;;;;;;;3.42;2.20;;;25.40;93.10;;;;;;5047721;28;20219;-36